sensor_id;sensor_type;location;lat;lon;timestamp;temperature;humidity
21744;DHT22;11034;48.556;9.342;2022-08-19T00:01:42;17.60;99.90
21744;DHT22;11034;48.556;9.342;2022-08-19T00:04:20;17.40;99.90
21744;DHT22;11034;48.556;9.342;2022-08-19T00:06:49;17.50;99.90
21744;DHT22;11034;48.556;9.342;2022-08-19T00:09:18;17.40;99.90
21744;DHT22;11034;48.556;9.342;2022-08-19T00:11:47;17.30;99.90
21744;DHT22;11034;48.556;9.342;2022-08-19T00:14:16;17.30;99.90
21744;DHT22;11034;48.556;9.342;2022-08-19T00:16:46;17.40;99.90
21744;DHT22;11034;48.556;9.342;2022-08-19T00:19:16;17.30;99.90
21744;DHT22;11034;48.556;9.342;2022-08-19T00:21:44;17.30;99.90
21744;DHT22;11034;48.556;9.342;2022-08-19T00:24:14;17.30;99.90
21744;DHT22;11034;48.556;9.342;2022-08-19T00:26:43;17.30;99.90
21744;DHT22;11034;48.556;9.342;2022-08-19T00:29:14;17.30;99.90
21744;DHT22;11034;48.556;9.342;2022-08-19T00:31:42;17.30;99.90
21744;DHT22;11034;48.556;9.342;2022-08-19T00:34:13;17.30;99.90
21744;DHT22;11034;48.556;9.342;2022-08-19T00:36:42;17.20;99.90
21744;DHT22;11034;48.556;9.342;2022-08-19T00:39:11;17.20;99.90
21744;DHT22;11034;48.556;9.342;2022-08-19T00:41:40;17.20;99.90
21744;DHT22;11034;48.556;9.342;2022-08-19T00:44:12;17.20;99.90
21744;DHT22;11034;48.556;9.342;2022-08-19T00:46:43;17.20;99.90
21744;DHT22;11034;48.556;9.342;2022-08-19T00:49:27;17.20;99.90
21744;DHT22;11034;48.556;9.342;2022-08-19T00:51:59;17.10;99.90
21744;DHT22;11034;48.556;9.342;2022-08-19T00:54:28;17.10;99.90
21744;DHT22;11034;48.556;9.342;2022-08-19T00:56:58;17.10;99.90
21744;DHT22;11034;48.556;9.342;2022-08-19T00:59:28;17.10;99.90
21744;DHT22;11034;48.556;9.342;2022-08-19T01:02:16;17.10;99.90
21744;DHT22;11034;48.556;9.342;2022-08-19T01:04:47;17.10;99.90
21744;DHT22;11034;48.556;9.342;2022-08-19T01:07:15;17.10;99.90
21744;DHT22;11034;48.556;9.342;2022-08-19T01:09:45;17.10;99.90
21744;DHT22;11034;48.556;9.342;2022-08-19T01:12:14;17.10;99.90
21744;DHT22;11034;48.556;9.342;2022-08-19T01:14:43;17.10;99.90
21744;DHT22;11034;48.556;9.342;2022-08-19T01:17:13;17.10;99.90
21744;DHT22;11034;48.556;9.342;2022-08-19T01:19:43;17.10;99.90
21744;DHT22;11034;48.556;9.342;2022-08-19T01:22:19;17.10;99.90
21744;DHT22;11034;48.556;9.342;2022-08-19T01:24:57;17.10;99.90
21744;DHT22;11034;48.556;9.342;2022-08-19T01:27:25;17.10;99.90
21744;DHT22;11034;48.556;9.342;2022-08-19T01:30:06;17.10;99.90
21744;DHT22;11034;48.556;9.342;2022-08-19T01:32:34;17.10;99.90
21744;DHT22;11034;48.556;9.342;2022-08-19T01:35:03;17.10;99.90
21744;DHT22;11034;48.556;9.342;2022-08-19T01:37:42;17.10;99.90
21744;DHT22;11034;48.556;9.342;2022-08-19T01:40:12;17.10;99.90
21744;DHT22;11034;48.556;9.342;2022-08-19T01:42:40;17.10;99.90
21744;DHT22;11034;48.556;9.342;2022-08-19T01:45:09;17.10;99.90
21744;DHT22;11034;48.556;9.342;2022-08-19T01:47:38;17.10;99.90
21744;DHT22;11034;48.556;9.342;2022-08-19T01:50:09;17.10;99.90
21744;DHT22;11034;48.556;9.342;2022-08-19T01:52:38;17.10;99.90
21744;DHT22;11034;48.556;9.342;2022-08-19T01:55:10;17.20;99.90
21744;DHT22;11034;48.556;9.342;2022-08-19T01:57:41;17.20;99.90
21744;DHT22;11034;48.556;9.342;2022-08-19T02:00:14;17.20;99.90
21744;DHT22;11034;48.556;9.342;2022-08-19T02:02:43;17.20;99.90
21744;DHT22;11034;48.556;9.342;2022-08-19T02:05:11;17.20;99.90
21744;DHT22;11034;48.556;9.342;2022-08-19T02:07:40;17.20;99.90
21744;DHT22;11034;48.556;9.342;2022-08-19T02:10:11;17.20;99.90
21744;DHT22;11034;48.556;9.342;2022-08-19T02:12:44;17.20;99.90
21744;DHT22;11034;48.556;9.342;2022-08-19T02:15:13;17.20;99.90
21744;DHT22;11034;48.556;9.342;2022-08-19T02:17:42;17.20;99.90
21744;DHT22;11034;48.556;9.342;2022-08-19T02:20:11;17.30;99.90
21744;DHT22;11034;48.556;9.342;2022-08-19T02:22:40;17.30;99.90
21744;DHT22;11034;48.556;9.342;2022-08-19T02:25:10;17.30;99.90
21744;DHT22;11034;48.556;9.342;2022-08-19T02:27:39;17.30;99.90
21744;DHT22;11034;48.556;9.342;2022-08-19T02:30:13;17.30;99.90
21744;DHT22;11034;48.556;9.342;2022-08-19T02:32:42;17.30;99.90
21744;DHT22;11034;48.556;9.342;2022-08-19T02:35:12;17.40;99.90
21744;DHT22;11034;48.556;9.342;2022-08-19T02:37:40;17.40;99.90
21744;DHT22;11034;48.556;9.342;2022-08-19T02:40:26;17.40;99.90
21744;DHT22;11034;48.556;9.342;2022-08-19T02:42:55;17.40;99.90
21744;DHT22;11034;48.556;9.342;2022-08-19T02:45:25;17.40;99.90
21744;DHT22;11034;48.556;9.342;2022-08-19T02:47:53;17.40;99.90
21744;DHT22;11034;48.556;9.342;2022-08-19T02:50:21;17.40;99.90
21744;DHT22;11034;48.556;9.342;2022-08-19T02:52:49;17.50;99.90
21744;DHT22;11034;48.556;9.342;2022-08-19T02:55:18;17.40;99.90
21744;DHT22;11034;48.556;9.342;2022-08-19T02:57:47;17.40;99.90
21744;DHT22;11034;48.556;9.342;2022-08-19T03:00:16;17.40;99.90
21744;DHT22;11034;48.556;9.342;2022-08-19T03:02:46;17.40;99.90
21744;DHT22;11034;48.556;9.342;2022-08-19T03:05:15;17.40;99.90
21744;DHT22;11034;48.556;9.342;2022-08-19T03:07:43;17.40;99.90
21744;DHT22;11034;48.556;9.342;2022-08-19T03:10:12;17.40;99.90
21744;DHT22;11034;48.556;9.342;2022-08-19T03:12:40;17.40;99.90
21744;DHT22;11034;48.556;9.342;2022-08-19T03:15:09;17.40;99.90
21744;DHT22;11034;48.556;9.342;2022-08-19T03:17:37;17.40;99.90
21744;DHT22;11034;48.556;9.342;2022-08-19T03:20:07;17.50;99.90
21744;DHT22;11034;48.556;9.342;2022-08-19T03:22:36;17.40;99.90
21744;DHT22;11034;48.556;9.342;2022-08-19T03:25:04;17.40;99.90
21744;DHT22;11034;48.556;9.342;2022-08-19T03:27:33;17.40;99.90
21744;DHT22;11034;48.556;9.342;2022-08-19T03:30:01;17.40;99.90
21744;DHT22;11034;48.556;9.342;2022-08-19T03:32:32;17.40;99.90
21744;DHT22;11034;48.556;9.342;2022-08-19T03:35:00;17.40;99.90
21744;DHT22;11034;48.556;9.342;2022-08-19T03:37:30;17.40;99.90
21744;DHT22;11034;48.556;9.342;2022-08-19T03:39:58;17.30;99.90
21744;DHT22;11034;48.556;9.342;2022-08-19T03:42:26;17.30;99.90
21744;DHT22;11034;48.556;9.342;2022-08-19T03:45:14;17.30;99.90
21744;DHT22;11034;48.556;9.342;2022-08-19T03:47:43;17.30;99.90
21744;DHT22;11034;48.556;9.342;2022-08-19T03:50:12;17.40;99.90
21744;DHT22;11034;48.556;9.342;2022-08-19T03:52:41;17.30;99.90
21744;DHT22;11034;48.556;9.342;2022-08-19T03:55:12;17.30;99.90
21744;DHT22;11034;48.556;9.342;2022-08-19T03:57:40;17.30;99.90
21744;DHT22;11034;48.556;9.342;2022-08-19T04:00:09;17.30;99.90
21744;DHT22;11034;48.556;9.342;2022-08-19T04:02:40;17.30;99.90
21744;DHT22;11034;48.556;9.342;2022-08-19T04:05:23;17.30;99.90
21744;DHT22;11034;48.556;9.342;2022-08-19T04:07:54;17.30;99.90
21744;DHT22;11034;48.556;9.342;2022-08-19T04:10:26;17.30;99.90
21744;DHT22;11034;48.556;9.342;2022-08-19T04:12:54;17.30;99.90
21744;DHT22;11034;48.556;9.342;2022-08-19T04:15:24;17.40;99.90
21744;DHT22;11034;48.556;9.342;2022-08-19T04:17:52;17.40;99.90
21744;DHT22;11034;48.556;9.342;2022-08-19T04:20:20;17.40;99.90
21744;DHT22;11034;48.556;9.342;2022-08-19T04:22:48;17.40;99.90
21744;DHT22;11034;48.556;9.342;2022-08-19T04:25:17;17.30;99.90
21744;DHT22;11034;48.556;9.342;2022-08-19T04:27:46;17.30;99.90
21744;DHT22;11034;48.556;9.342;2022-08-19T04:30:15;17.30;99.90
21744;DHT22;11034;48.556;9.342;2022-08-19T04:32:44;17.30;99.90
21744;DHT22;11034;48.556;9.342;2022-08-19T04:35:12;17.30;99.90
21744;DHT22;11034;48.556;9.342;2022-08-19T04:37:44;17.30;99.90
21744;DHT22;11034;48.556;9.342;2022-08-19T04:40:12;17.30;99.90
21744;DHT22;11034;48.556;9.342;2022-08-19T04:42:59;17.40;99.90
21744;DHT22;11034;48.556;9.342;2022-08-19T04:45:27;17.40;99.90
21744;DHT22;11034;48.556;9.342;2022-08-19T04:48:05;17.40;99.90
21744;DHT22;11034;48.556;9.342;2022-08-19T04:50:55;17.30;99.90
21744;DHT22;11034;48.556;9.342;2022-08-19T04:53:25;17.30;99.90
21744;DHT22;11034;48.556;9.342;2022-08-19T04:56:07;17.40;99.90
21744;DHT22;11034;48.556;9.342;2022-08-19T04:58:37;17.40;99.90
21744;DHT22;11034;48.556;9.342;2022-08-19T05:01:06;17.40;99.90
21744;DHT22;11034;48.556;9.342;2022-08-19T05:03:35;17.40;99.90
21744;DHT22;11034;48.556;9.342;2022-08-19T05:06:05;17.40;99.90
21744;DHT22;11034;48.556;9.342;2022-08-19T05:08:36;17.50;99.90
21744;DHT22;11034;48.556;9.342;2022-08-19T05:11:10;17.50;99.90
21744;DHT22;11034;48.556;9.342;2022-08-19T05:13:41;17.50;99.90
21744;DHT22;11034;48.556;9.342;2022-08-19T05:16:11;17.50;99.90
21744;DHT22;11034;48.556;9.342;2022-08-19T05:18:40;17.50;99.90
21744;DHT22;11034;48.556;9.342;2022-08-19T05:21:26;17.50;99.90
21744;DHT22;11034;48.556;9.342;2022-08-19T05:24:14;17.50;99.90
21744;DHT22;11034;48.556;9.342;2022-08-19T05:26:50;17.50;99.90
21744;DHT22;11034;48.556;9.342;2022-08-19T05:29:24;17.50;99.90
21744;DHT22;11034;48.556;9.342;2022-08-19T05:35:44;17.60;99.90
21744;DHT22;11034;48.556;9.342;2022-08-19T05:38:19;17.60;99.90
21744;DHT22;11034;48.556;9.342;2022-08-19T05:40:47;17.60;99.90
21744;DHT22;11034;48.556;9.342;2022-08-19T05:47:03;17.60;99.90
21744;DHT22;11034;48.556;9.342;2022-08-19T05:49:37;17.60;99.90
21744;DHT22;11034;48.556;9.342;2022-08-19T05:52:11;17.60;99.90
21744;DHT22;11034;48.556;9.342;2022-08-19T05:54:44;17.60;99.90
21744;DHT22;11034;48.556;9.342;2022-08-19T05:57:17;17.60;99.90
21744;DHT22;11034;48.556;9.342;2022-08-19T05:59:45;17.50;99.90
21744;DHT22;11034;48.556;9.342;2022-08-19T06:02:20;17.50;99.90
21744;DHT22;11034;48.556;9.342;2022-08-19T06:04:48;17.40;99.90
21744;DHT22;11034;48.556;9.342;2022-08-19T06:07:16;17.30;99.90
21744;DHT22;11034;48.556;9.342;2022-08-19T06:09:44;17.20;99.90
21744;DHT22;11034;48.556;9.342;2022-08-19T06:12:30;17.20;99.90
21744;DHT22;11034;48.556;9.342;2022-08-19T06:15:08;17.20;99.90
21744;DHT22;11034;48.556;9.342;2022-08-19T06:17:38;17.20;99.90
21744;DHT22;11034;48.556;9.342;2022-08-19T06:20:13;17.20;99.90
21744;DHT22;11034;48.556;9.342;2022-08-19T06:23:09;17.30;99.90
21744;DHT22;11034;48.556;9.342;2022-08-19T06:25:42;17.30;99.90
21744;DHT22;11034;48.556;9.342;2022-08-19T06:28:11;17.40;99.90
21744;DHT22;11034;48.556;9.342;2022-08-19T06:30:41;17.50;99.90
21744;DHT22;11034;48.556;9.342;2022-08-19T06:33:11;17.50;99.90
21744;DHT22;11034;48.556;9.342;2022-08-19T06:35:39;17.40;99.90
21744;DHT22;11034;48.556;9.342;2022-08-19T06:38:09;17.40;99.90
21744;DHT22;11034;48.556;9.342;2022-08-19T06:40:37;17.40;99.90
21744;DHT22;11034;48.556;9.342;2022-08-19T06:43:05;17.40;99.90
21744;DHT22;11034;48.556;9.342;2022-08-19T06:45:36;17.40;99.90
21744;DHT22;11034;48.556;9.342;2022-08-19T06:48:05;17.40;99.90
21744;DHT22;11034;48.556;9.342;2022-08-19T06:50:38;17.40;99.90
21744;DHT22;11034;48.556;9.342;2022-08-19T06:53:06;17.40;99.90
21744;DHT22;11034;48.556;9.342;2022-08-19T06:55:35;17.40;99.90
21744;DHT22;11034;48.556;9.342;2022-08-19T06:58:04;17.40;99.90
21744;DHT22;11034;48.556;9.342;2022-08-19T07:00:33;17.40;99.90
21744;DHT22;11034;48.556;9.342;2022-08-19T07:03:01;17.40;99.90
21744;DHT22;11034;48.556;9.342;2022-08-19T07:05:39;17.40;99.90
21744;DHT22;11034;48.556;9.342;2022-08-19T07:08:12;17.30;99.90
21744;DHT22;11034;48.556;9.342;2022-08-19T07:10:43;17.30;99.90
21744;DHT22;11034;48.556;9.342;2022-08-19T07:13:12;17.30;99.90
21744;DHT22;11034;48.556;9.342;2022-08-19T07:15:41;17.30;99.90
21744;DHT22;11034;48.556;9.342;2022-08-19T07:18:09;17.30;99.90
21744;DHT22;11034;48.556;9.342;2022-08-19T07:21:09;17.30;99.90
21744;DHT22;11034;48.556;9.342;2022-08-19T07:23:43;17.30;99.90
21744;DHT22;11034;48.556;9.342;2022-08-19T07:26:15;17.30;99.90
21744;DHT22;11034;48.556;9.342;2022-08-19T07:28:54;17.30;99.90
21744;DHT22;11034;48.556;9.342;2022-08-19T07:31:26;17.40;99.90
21744;DHT22;11034;48.556;9.342;2022-08-19T07:33:56;17.40;99.90
21744;DHT22;11034;48.556;9.342;2022-08-19T07:36:28;17.30;99.90
21744;DHT22;11034;48.556;9.342;2022-08-19T07:39:00;17.40;99.90
21744;DHT22;11034;48.556;9.342;2022-08-19T07:41:29;17.30;99.90
21744;DHT22;11034;48.556;9.342;2022-08-19T07:43:59;17.30;99.90
21744;DHT22;11034;48.556;9.342;2022-08-19T07:46:38;17.30;99.90
21744;DHT22;11034;48.556;9.342;2022-08-19T07:49:07;17.30;99.90
21744;DHT22;11034;48.556;9.342;2022-08-19T07:52:02;17.30;99.90
21744;DHT22;11034;48.556;9.342;2022-08-19T07:54:35;17.40;99.90
21744;DHT22;11034;48.556;9.342;2022-08-19T07:57:16;17.30;99.90
21744;DHT22;11034;48.556;9.342;2022-08-19T07:59:59;17.30;99.90
21744;DHT22;11034;48.556;9.342;2022-08-19T08:02:30;17.20;99.90
21744;DHT22;11034;48.556;9.342;2022-08-19T08:05:05;17.20;99.90
21744;DHT22;11034;48.556;9.342;2022-08-19T08:08:05;17.20;99.90
21744;DHT22;11034;48.556;9.342;2022-08-19T08:11:05;17.20;99.90
21744;DHT22;11034;48.556;9.342;2022-08-19T08:13:45;17.20;99.90
21744;DHT22;11034;48.556;9.342;2022-08-19T08:16:27;17.20;99.90
21744;DHT22;11034;48.556;9.342;2022-08-19T08:18:57;17.20;99.90
21744;DHT22;11034;48.556;9.342;2022-08-19T08:21:27;17.20;99.90
21744;DHT22;11034;48.556;9.342;2022-08-19T08:23:56;17.20;99.90
21744;DHT22;11034;48.556;9.342;2022-08-19T08:30:21;17.20;99.90
21744;DHT22;11034;48.556;9.342;2022-08-19T08:33:13;17.20;99.90
21744;DHT22;11034;48.556;9.342;2022-08-19T08:36:31;17.20;99.90
21744;DHT22;11034;48.556;9.342;2022-08-19T09:20:30;17.10;99.90
21744;DHT22;11034;48.556;9.342;2022-08-19T09:23:46;17.10;99.90
21744;DHT22;11034;48.556;9.342;2022-08-19T09:27:10;17.10;99.90
21744;DHT22;11034;48.556;9.342;2022-08-19T09:56:09;17.50;99.90
21744;DHT22;11034;48.556;9.342;2022-08-19T09:58:39;17.50;99.90
21744;DHT22;11034;48.556;9.342;2022-08-19T10:12:00;17.80;99.90
21744;DHT22;11034;48.556;9.342;2022-08-19T10:14:57;17.60;99.90
21744;DHT22;11034;48.556;9.342;2022-08-19T10:25:22;17.50;99.90
21744;DHT22;11034;48.556;9.342;2022-08-19T10:28:40;17.50;99.90
21744;DHT22;11034;48.556;9.342;2022-08-19T10:31:33;17.60;99.90
21744;DHT22;11034;48.556;9.342;2022-08-19T10:34:28;17.60;99.90
21744;DHT22;11034;48.556;9.342;2022-08-19T10:36:59;17.60;99.90
21744;DHT22;11034;48.556;9.342;2022-08-19T10:40:03;17.60;99.90
21744;DHT22;11034;48.556;9.342;2022-08-19T10:43:33;17.50;99.90
21744;DHT22;11034;48.556;9.342;2022-08-19T10:46:04;17.50;99.90
21744;DHT22;11034;48.556;9.342;2022-08-19T10:48:46;17.60;99.90
21744;DHT22;11034;48.556;9.342;2022-08-19T10:51:23;17.50;99.90
21744;DHT22;11034;48.556;9.342;2022-08-19T10:54:56;17.60;99.90
21744;DHT22;11034;48.556;9.342;2022-08-19T10:58:11;17.50;99.90
21744;DHT22;11034;48.556;9.342;2022-08-19T11:00:43;17.50;99.90
21744;DHT22;11034;48.556;9.342;2022-08-19T11:04:28;17.50;99.90
21744;DHT22;11034;48.556;9.342;2022-08-19T11:07:02;17.40;99.90
21744;DHT22;11034;48.556;9.342;2022-08-19T11:09:43;17.40;99.90
21744;DHT22;11034;48.556;9.342;2022-08-19T11:12:15;17.50;99.90
21744;DHT22;11034;48.556;9.342;2022-08-19T11:14:44;17.50;99.90
21744;DHT22;11034;48.556;9.342;2022-08-19T11:17:12;17.50;99.90
21744;DHT22;11034;48.556;9.342;2022-08-19T11:19:42;17.50;99.90
21744;DHT22;11034;48.556;9.342;2022-08-19T11:22:10;17.50;99.90
21744;DHT22;11034;48.556;9.342;2022-08-19T11:24:59;17.60;99.90
21744;DHT22;11034;48.556;9.342;2022-08-19T11:27:27;17.50;99.90
21744;DHT22;11034;48.556;9.342;2022-08-19T11:29:56;17.50;99.90
21744;DHT22;11034;48.556;9.342;2022-08-19T11:35:57;17.40;99.90
21744;DHT22;11034;48.556;9.342;2022-08-19T11:38:27;17.40;99.90
21744;DHT22;11034;48.556;9.342;2022-08-19T11:40:59;17.40;99.90
21744;DHT22;11034;48.556;9.342;2022-08-19T11:43:29;17.30;99.90
21744;DHT22;11034;48.556;9.342;2022-08-19T11:46:04;17.30;99.90
21744;DHT22;11034;48.556;9.342;2022-08-19T11:48:35;17.30;99.90
21744;DHT22;11034;48.556;9.342;2022-08-19T11:51:06;17.30;99.90
21744;DHT22;11034;48.556;9.342;2022-08-19T11:53:37;17.30;99.90
21744;DHT22;11034;48.556;9.342;2022-08-19T11:56:07;17.30;99.90
21744;DHT22;11034;48.556;9.342;2022-08-19T11:58:35;17.20;99.90
21744;DHT22;11034;48.556;9.342;2022-08-19T12:01:05;17.20;99.90
21744;DHT22;11034;48.556;9.342;2022-08-19T12:03:33;17.20;99.90
21744;DHT22;11034;48.556;9.342;2022-08-19T12:06:05;17.30;99.90
21744;DHT22;11034;48.556;9.342;2022-08-19T12:08:33;17.30;99.90
21744;DHT22;11034;48.556;9.342;2022-08-19T12:11:02;17.30;99.90
21744;DHT22;11034;48.556;9.342;2022-08-19T12:13:30;17.30;99.90
21744;DHT22;11034;48.556;9.342;2022-08-19T12:15:58;17.30;99.90
21744;DHT22;11034;48.556;9.342;2022-08-19T12:18:27;17.30;99.90
21744;DHT22;11034;48.556;9.342;2022-08-19T12:20:55;17.30;99.90
21744;DHT22;11034;48.556;9.342;2022-08-19T12:23:24;17.30;99.90
21744;DHT22;11034;48.556;9.342;2022-08-19T12:25:53;17.40;99.90
21744;DHT22;11034;48.556;9.342;2022-08-19T12:28:24;17.40;99.90
21744;DHT22;11034;48.556;9.342;2022-08-19T12:30:52;17.40;99.90
21744;DHT22;11034;48.556;9.342;2022-08-19T12:33:21;17.40;99.90
21744;DHT22;11034;48.556;9.342;2022-08-19T12:35:54;17.50;99.90
21744;DHT22;11034;48.556;9.342;2022-08-19T12:38:24;17.50;99.90
21744;DHT22;11034;48.556;9.342;2022-08-19T12:40:53;17.50;99.90
21744;DHT22;11034;48.556;9.342;2022-08-19T12:43:26;17.50;99.90
21744;DHT22;11034;48.556;9.342;2022-08-19T12:45:57;17.60;99.90
21744;DHT22;11034;48.556;9.342;2022-08-19T12:48:26;17.60;99.90
21744;DHT22;11034;48.556;9.342;2022-08-19T12:51:06;17.60;99.90
21744;DHT22;11034;48.556;9.342;2022-08-19T12:53:36;17.70;99.90
21744;DHT22;11034;48.556;9.342;2022-08-19T12:56:06;17.70;99.90
21744;DHT22;11034;48.556;9.342;2022-08-19T12:58:38;17.80;99.90
21744;DHT22;11034;48.556;9.342;2022-08-19T13:01:17;17.80;99.90
21744;DHT22;11034;48.556;9.342;2022-08-19T13:03:49;17.80;99.90
21744;DHT22;11034;48.556;9.342;2022-08-19T13:06:19;17.80;99.90
21744;DHT22;11034;48.556;9.342;2022-08-19T13:08:51;17.80;99.90
21744;DHT22;11034;48.556;9.342;2022-08-19T13:11:28;17.80;99.90
21744;DHT22;11034;48.556;9.342;2022-08-19T13:14:02;17.80;99.90
21744;DHT22;11034;48.556;9.342;2022-08-19T13:16:30;17.80;99.90
21744;DHT22;11034;48.556;9.342;2022-08-19T13:18:59;17.80;99.90
21744;DHT22;11034;48.556;9.342;2022-08-19T13:21:29;17.90;99.90
21744;DHT22;11034;48.556;9.342;2022-08-19T13:23:59;18.00;99.90
21744;DHT22;11034;48.556;9.342;2022-08-19T13:26:27;18.00;99.90
21744;DHT22;11034;48.556;9.342;2022-08-19T13:28:55;18.00;99.90
21744;DHT22;11034;48.556;9.342;2022-08-19T13:31:42;18.00;99.90
21744;DHT22;11034;48.556;9.342;2022-08-19T13:34:33;18.00;99.90
21744;DHT22;11034;48.556;9.342;2022-08-19T13:37:04;18.10;99.90
21744;DHT22;11034;48.556;9.342;2022-08-19T13:39:35;18.10;99.90
21744;DHT22;11034;48.556;9.342;2022-08-19T13:42:04;18.10;99.90
21744;DHT22;11034;48.556;9.342;2022-08-19T13:44:36;18.10;99.90
21744;DHT22;11034;48.556;9.342;2022-08-19T13:47:05;18.10;99.90
21744;DHT22;11034;48.556;9.342;2022-08-19T13:49:35;18.10;99.90
21744;DHT22;11034;48.556;9.342;2022-08-19T13:52:06;18.00;99.90
21744;DHT22;11034;48.556;9.342;2022-08-19T13:54:36;17.90;99.90
21744;DHT22;11034;48.556;9.342;2022-08-19T13:57:04;17.90;99.90
21744;DHT22;11034;48.556;9.342;2022-08-19T13:59:33;17.90;99.90
21744;DHT22;11034;48.556;9.342;2022-08-19T14:02:01;17.90;99.90
21744;DHT22;11034;48.556;9.342;2022-08-19T14:04:30;17.80;99.90
21744;DHT22;11034;48.556;9.342;2022-08-19T14:06:58;17.80;99.90
21744;DHT22;11034;48.556;9.342;2022-08-19T14:09:28;17.80;99.90
21744;DHT22;11034;48.556;9.342;2022-08-19T14:11:57;17.80;99.90
21744;DHT22;11034;48.556;9.342;2022-08-19T14:14:26;17.80;99.90
21744;DHT22;11034;48.556;9.342;2022-08-19T14:16:54;17.90;99.90
21744;DHT22;11034;48.556;9.342;2022-08-19T14:19:22;17.80;99.90
21744;DHT22;11034;48.556;9.342;2022-08-19T14:21:55;17.90;99.90
21744;DHT22;11034;48.556;9.342;2022-08-19T14:24:24;17.90;99.90
21744;DHT22;11034;48.556;9.342;2022-08-19T14:26:52;17.90;99.90
21744;DHT22;11034;48.556;9.342;2022-08-19T14:29:22;17.90;99.90
21744;DHT22;11034;48.556;9.342;2022-08-19T14:31:50;17.80;99.90
21744;DHT22;11034;48.556;9.342;2022-08-19T14:34:18;17.80;99.90
21744;DHT22;11034;48.556;9.342;2022-08-19T14:36:46;17.80;99.90
21744;DHT22;11034;48.556;9.342;2022-08-19T14:39:16;17.70;99.90
21744;DHT22;11034;48.556;9.342;2022-08-19T14:41:46;17.60;99.90
21744;DHT22;11034;48.556;9.342;2022-08-19T14:44:14;17.60;99.90
21744;DHT22;11034;48.556;9.342;2022-08-19T14:46:44;17.60;99.90
21744;DHT22;11034;48.556;9.342;2022-08-19T14:49:15;17.60;99.90
21744;DHT22;11034;48.556;9.342;2022-08-19T14:51:45;17.60;99.90
21744;DHT22;11034;48.556;9.342;2022-08-19T14:54:14;17.60;99.90
21744;DHT22;11034;48.556;9.342;2022-08-19T14:56:45;17.60;99.90
21744;DHT22;11034;48.556;9.342;2022-08-19T14:59:13;17.60;99.90
21744;DHT22;11034;48.556;9.342;2022-08-19T15:01:41;17.50;99.90
21744;DHT22;11034;48.556;9.342;2022-08-19T15:04:11;17.50;99.90
21744;DHT22;11034;48.556;9.342;2022-08-19T15:06:39;17.50;99.90
21744;DHT22;11034;48.556;9.342;2022-08-19T15:09:09;17.50;99.90
21744;DHT22;11034;48.556;9.342;2022-08-19T15:11:38;17.50;99.90
21744;DHT22;11034;48.556;9.342;2022-08-19T15:14:06;17.50;99.90
21744;DHT22;11034;48.556;9.342;2022-08-19T15:16:34;17.60;99.90
21744;DHT22;11034;48.556;9.342;2022-08-19T15:19:02;17.70;99.90
21744;DHT22;11034;48.556;9.342;2022-08-19T15:21:33;17.80;99.90
21744;DHT22;11034;48.556;9.342;2022-08-19T15:24:01;17.90;99.90
21744;DHT22;11034;48.556;9.342;2022-08-19T15:26:30;17.90;99.90
21744;DHT22;11034;48.556;9.342;2022-08-19T15:28:59;18.10;99.90
21744;DHT22;11034;48.556;9.342;2022-08-19T15:31:28;18.20;99.90
21744;DHT22;11034;48.556;9.342;2022-08-19T15:34:04;18.40;99.90
21744;DHT22;11034;48.556;9.342;2022-08-19T15:36:34;18.40;99.90
21744;DHT22;11034;48.556;9.342;2022-08-19T15:39:04;18.50;99.90
21744;DHT22;11034;48.556;9.342;2022-08-19T15:41:33;18.60;99.90
21744;DHT22;11034;48.556;9.342;2022-08-19T15:44:05;18.70;99.90
21744;DHT22;11034;48.556;9.342;2022-08-19T15:46:37;18.70;99.90
21744;DHT22;11034;48.556;9.342;2022-08-19T15:49:06;18.80;99.90
21744;DHT22;11034;48.556;9.342;2022-08-19T15:51:37;18.90;99.90
21744;DHT22;11034;48.556;9.342;2022-08-19T15:54:08;19.00;99.90
21744;DHT22;11034;48.556;9.342;2022-08-19T15:56:37;19.00;99.90
21744;DHT22;11034;48.556;9.342;2022-08-19T15:59:24;19.10;99.90
21744;DHT22;11034;48.556;9.342;2022-08-19T16:02:14;19.20;99.90
21744;DHT22;11034;48.556;9.342;2022-08-19T16:05:00;19.20;99.90
21744;DHT22;11034;48.556;9.342;2022-08-19T16:07:47;19.20;99.90
21744;DHT22;11034;48.556;9.342;2022-08-19T16:10:17;19.30;99.90
21744;DHT22;11034;48.556;9.342;2022-08-19T16:12:54;19.30;99.90
21744;DHT22;11034;48.556;9.342;2022-08-19T16:15:23;19.30;99.90
21744;DHT22;11034;48.556;9.342;2022-08-19T16:17:53;19.40;99.90
21744;DHT22;11034;48.556;9.342;2022-08-19T16:20:23;19.40;99.90
21744;DHT22;11034;48.556;9.342;2022-08-19T16:22:55;19.50;99.90
21744;DHT22;11034;48.556;9.342;2022-08-19T16:25:26;19.50;99.90
21744;DHT22;11034;48.556;9.342;2022-08-19T16:27:57;19.50;99.90
21744;DHT22;11034;48.556;9.342;2022-08-19T16:30:35;19.40;99.90
21744;DHT22;11034;48.556;9.342;2022-08-19T16:33:04;19.30;99.90
21744;DHT22;11034;48.556;9.342;2022-08-19T16:35:32;19.40;99.90
21744;DHT22;11034;48.556;9.342;2022-08-19T16:38:02;19.30;99.90
21744;DHT22;11034;48.556;9.342;2022-08-19T16:40:31;19.40;99.90
21744;DHT22;11034;48.556;9.342;2022-08-19T16:43:00;19.30;99.90
21744;DHT22;11034;48.556;9.342;2022-08-19T16:45:29;19.30;99.90
21744;DHT22;11034;48.556;9.342;2022-08-19T16:47:57;19.40;99.90
21744;DHT22;11034;48.556;9.342;2022-08-19T16:50:25;19.40;99.90
21744;DHT22;11034;48.556;9.342;2022-08-19T16:53:15;19.50;99.90
21744;DHT22;11034;48.556;9.342;2022-08-19T16:55:44;19.60;99.90
21744;DHT22;11034;48.556;9.342;2022-08-19T16:58:19;19.80;99.90
21744;DHT22;11034;48.556;9.342;2022-08-19T17:00:54;19.90;99.90
21744;DHT22;11034;48.556;9.342;2022-08-19T17:03:30;19.80;99.90
21744;DHT22;11034;48.556;9.342;2022-08-19T17:06:08;19.70;99.90
21744;DHT22;11034;48.556;9.342;2022-08-19T17:08:47;19.60;99.90
21744;DHT22;11034;48.556;9.342;2022-08-19T17:11:17;19.50;99.90
21744;DHT22;11034;48.556;9.342;2022-08-19T17:13:47;19.30;99.90
21744;DHT22;11034;48.556;9.342;2022-08-19T17:16:17;19.30;99.90
21744;DHT22;11034;48.556;9.342;2022-08-19T17:18:47;19.20;99.90
21744;DHT22;11034;48.556;9.342;2022-08-19T17:21:18;19.10;99.90
21744;DHT22;11034;48.556;9.342;2022-08-19T17:23:51;19.10;99.90
21744;DHT22;11034;48.556;9.342;2022-08-19T17:26:19;19.00;99.90
21744;DHT22;11034;48.556;9.342;2022-08-19T17:28:49;18.80;99.90
21744;DHT22;11034;48.556;9.342;2022-08-19T17:31:22;18.80;99.90
21744;DHT22;11034;48.556;9.342;2022-08-19T17:33:53;18.70;99.90
21744;DHT22;11034;48.556;9.342;2022-08-19T17:36:27;18.70;99.90
21744;DHT22;11034;48.556;9.342;2022-08-19T17:38:59;18.70;99.90
21744;DHT22;11034;48.556;9.342;2022-08-19T17:41:28;18.70;99.90
21744;DHT22;11034;48.556;9.342;2022-08-19T17:43:59;18.50;99.90
21744;DHT22;11034;48.556;9.342;2022-08-19T17:46:28;18.50;99.90
21744;DHT22;11034;48.556;9.342;2022-08-19T17:48:56;18.50;99.90